createdAt,value
2023-01-03T00:01:35.529Z,0.82
2023-01-03T00:04:04.360Z,0.80
2023-01-03T00:06:35.270Z,0.60
2023-01-03T00:09:05.922Z,0.50
2023-01-03T00:11:52.733Z,0.95
2023-01-03T00:14:25.081Z,1.00
2023-01-03T00:16:56.327Z,1.00
2023-01-03T00:19:26.266Z,1.10
2023-01-03T00:21:55.031Z,1.52
2023-01-03T00:24:24.562Z,1.20
2023-01-03T00:26:53.012Z,1.13
2023-01-03T00:29:23.423Z,1.33
2023-01-03T00:31:52.536Z,0.85
2023-01-03T00:34:21.260Z,0.85
2023-01-03T00:36:49.767Z,0.70
2023-01-03T00:39:18.957Z,0.90
2023-01-03T00:41:47.648Z,0.90
2023-01-03T00:44:16.613Z,0.80
2023-01-03T00:46:46.984Z,0.88
2023-01-03T00:49:16.120Z,0.73
2023-01-03T00:51:45.187Z,0.93
2023-01-03T00:54:15.499Z,1.58
2023-01-03T00:56:45.416Z,0.82
2023-01-03T00:59:15.344Z,1.10
2023-01-03T01:01:47.988Z,0.73
2023-01-03T01:04:18.645Z,0.90
2023-01-03T01:06:50.307Z,0.88
2023-01-03T01:09:21.160Z,1.20
2023-01-03T01:11:50.609Z,1.27
2023-01-03T01:14:23.212Z,1.00
2023-01-03T01:16:57.198Z,0.93
2023-01-03T01:21:55.138Z,1.08
2023-01-03T01:24:24.136Z,1.10
2023-01-03T01:26:53.120Z,0.88
2023-01-03T01:29:22.260Z,1.15
2023-01-03T01:31:52.924Z,1.08
2023-01-03T01:34:21.316Z,1.33
2023-01-03T01:36:50.326Z,1.45
2023-01-03T01:39:21.074Z,1.00
2023-01-03T01:42:08.445Z,1.35
2023-01-03T01:44:58.613Z,0.93
2023-01-03T01:47:42.886Z,1.30
2023-01-03T01:50:20.900Z,1.35
2023-01-03T01:52:54.893Z,1.27
2023-01-03T01:55:26.381Z,1.30
2023-01-03T01:57:55.361Z,1.20
2023-01-03T02:00:23.893Z,1.50
2023-01-03T02:02:55.560Z,1.52
2023-01-03T02:05:25.354Z,1.40
2023-01-03T02:07:54.852Z,1.20
2023-01-03T02:10:34.950Z,1.40
2023-01-03T02:13:18.485Z,1.40
2023-01-03T02:16:02.548Z,1.53
2023-01-03T02:18:44.567Z,1.45
2023-01-03T02:21:36.898Z,1.55
2023-01-03T02:24:27.716Z,1.20
2023-01-03T02:27:04.585Z,1.48
2023-01-03T02:30:04.480Z,1.75
2023-01-03T02:32:41.398Z,1.23
2023-01-03T02:35:19.496Z,1.40
2023-01-03T02:37:56.562Z,1.58
2023-01-03T02:40:30.773Z,1.40
2023-01-03T02:43:06.454Z,1.50
2023-01-03T02:46:00.904Z,1.88
2023-01-03T02:48:40.353Z,2.03
2023-01-03T02:51:15.097Z,1.92
2023-01-03T02:53:49.662Z,1.48
2023-01-03T02:56:23.319Z,2.10
2023-01-03T02:58:56.792Z,1.70
2023-01-03T03:01:27.153Z,1.70
2023-01-03T03:03:59.418Z,1.80
2023-01-03T03:06:35.996Z,2.08
2023-01-03T03:09:06.827Z,2.15
2023-01-03T03:11:55.681Z,1.65
2023-01-03T03:14:30.707Z,1.88
2023-01-03T03:17:04.575Z,1.90
2023-01-03T03:19:53.889Z,1.88
2023-01-03T03:22:49.139Z,1.75
2023-01-03T03:25:23.597Z,1.40
2023-01-03T03:28:12.050Z,2.17
2023-01-03T03:30:43.882Z,1.70
2023-01-03T03:33:15.345Z,1.90
2023-01-03T03:35:49.271Z,2.10
2023-01-03T03:38:24.710Z,2.25
2023-01-03T03:41:18.210Z,1.55
2023-01-03T03:44:22.780Z,1.80
2023-01-03T03:46:57.173Z,2.00
2023-01-03T03:49:40.470Z,2.10
2023-01-03T03:52:15.697Z,1.55
2023-01-03T03:54:48.540Z,1.85
2023-01-03T03:57:23.990Z,2.08
2023-01-03T03:59:56.666Z,2.78
2023-01-03T04:02:27.773Z,2.15
2023-01-03T04:05:00.953Z,2.33
2023-01-03T04:07:31.274Z,2.28
2023-01-03T04:09:59.980Z,2.35
2023-01-03T04:12:28.983Z,2.40
2023-01-03T04:14:57.665Z,2.75
2023-01-03T04:17:26.418Z,2.65
2023-01-03T04:19:55.220Z,2.33
2023-01-03T04:22:23.687Z,2.15
2023-01-03T04:24:54.106Z,2.00
2023-01-03T04:27:23.165Z,2.85
2023-01-03T04:29:55.497Z,2.22
2023-01-03T04:32:26.081Z,2.45
2023-01-03T04:34:55.129Z,2.00
2023-01-03T04:37:24.866Z,2.45
2023-01-03T04:39:54.885Z,3.05
2023-01-03T04:42:41.056Z,2.40
2023-01-03T04:45:11.398Z,2.50
2023-01-03T04:47:40.201Z,2.33
2023-01-03T04:50:09.981Z,2.13
2023-01-03T04:52:38.996Z,2.38
2023-01-03T04:55:10.232Z,2.10
2023-01-03T04:57:40.918Z,2.33
2023-01-03T05:00:11.297Z,2.40
2023-01-03T05:02:39.940Z,1.83
2023-01-03T05:05:09.903Z,2.40
2023-01-03T05:07:38.205Z,2.33
2023-01-03T05:10:10.317Z,1.95
2023-01-03T05:12:40.179Z,2.20
2023-01-03T05:15:10.374Z,2.70
2023-01-03T05:17:42.781Z,2.40
2023-01-03T05:20:29.307Z,2.50
2023-01-03T05:23:15.143Z,1.90
2023-01-03T05:25:54.260Z,2.45
2023-01-03T05:28:25.044Z,2.85
2023-01-03T05:30:53.607Z,2.72
2023-01-03T05:33:22.468Z,2.80
2023-01-03T05:35:51.203Z,2.08
2023-01-03T05:38:20.291Z,2.67
2023-01-03T05:40:50.167Z,2.50
2023-01-03T05:43:18.710Z,2.35
2023-01-03T05:45:51.969Z,2.55
2023-01-03T05:48:21.619Z,2.95
2023-01-03T05:50:51.153Z,2.75
2023-01-03T05:53:19.515Z,2.92
2023-01-03T05:55:50.652Z,3.25
2023-01-03T05:58:19.165Z,3.47
2023-01-03T06:00:48.702Z,3.40
2023-01-03T06:03:18.082Z,3.13
2023-01-03T06:05:50.389Z,3.47
2023-01-03T06:08:19.757Z,4.07
2023-01-03T06:10:50.350Z,4.20
2023-01-03T06:13:24.182Z,4.20
2023-01-03T06:16:13.251Z,3.97
2023-01-03T06:18:41.823Z,4.20
2023-01-03T06:21:27.224Z,3.95
2023-01-03T06:23:55.723Z,4.07
2023-01-03T06:26:26.198Z,3.70
2023-01-03T06:28:54.899Z,4.10
2023-01-03T06:31:23.415Z,3.70
2023-01-03T06:33:53.052Z,4.20
2023-01-03T06:36:23.946Z,4.05
2023-01-03T06:38:55.123Z,4.72
2023-01-03T06:41:25.491Z,3.80
2023-01-03T06:43:55.788Z,4.90
2023-01-03T06:46:42.162Z,4.47
2023-01-03T06:49:34.334Z,4.40
2023-01-03T06:52:21.474Z,3.60
2023-01-03T06:54:50.457Z,3.40
2023-01-03T06:57:27.004Z,3.75
2023-01-03T06:59:55.974Z,3.72
2023-01-03T07:02:24.924Z,4.03
2023-01-03T07:04:54.350Z,4.00
2023-01-03T07:07:25.829Z,4.20
2023-01-03T07:09:55.001Z,4.45
2023-01-03T07:12:57.225Z,5.03
2023-01-03T07:15:25.981Z,5.28
2023-01-03T07:17:54.470Z,4.95
2023-01-03T07:20:23.438Z,4.53
2023-01-03T07:22:51.920Z,4.05
2023-01-03T07:25:21.354Z,4.28
2023-01-03T07:28:03.802Z,4.85
2023-01-03T07:30:39.252Z,4.40
2023-01-03T07:33:09.084Z,4.20
2023-01-03T07:35:40.144Z,4.43
2023-01-03T07:38:09.543Z,4.72
2023-01-03T07:40:38.224Z,5.18
2023-01-03T07:43:27.901Z,4.75
2023-01-03T07:45:56.793Z,4.82
2023-01-03T07:48:25.793Z,5.07
2023-01-03T07:50:58.822Z,5.07
2023-01-03T07:53:28.235Z,5.07
2023-01-03T07:56:09.215Z,5.13
2023-01-03T07:58:44.441Z,4.95
2023-01-03T08:01:14.946Z,5.00
2023-01-03T08:03:45.257Z,5.28
2023-01-03T08:06:16.300Z,4.63
2023-01-03T08:09:06.805Z,5.32
2023-01-03T08:11:52.327Z,5.45
2023-01-03T08:14:26.069Z,4.07
2023-01-03T08:16:55.567Z,4.93
2023-01-03T08:19:24.433Z,3.83
2023-01-03T08:21:52.746Z,4.53
2023-01-03T08:24:21.386Z,3.80
2023-01-03T08:26:50.200Z,5.65
2023-01-03T08:29:18.972Z,5.35
2023-01-03T08:31:54.182Z,4.57
2023-01-03T08:34:29.282Z,5.28
2023-01-03T08:37:03.567Z,5.13
2023-01-03T08:39:38.952Z,5.47
2023-01-03T08:42:09.882Z,4.38
2023-01-03T08:44:41.041Z,5.05
2023-01-03T08:47:12.071Z,5.00
2023-01-03T08:49:40.963Z,6.78
2023-01-03T08:52:10.140Z,6.43
2023-01-03T08:54:39.486Z,6.63
2023-01-03T08:57:08.018Z,5.68
2023-01-03T08:59:36.804Z,4.57
2023-01-03T09:02:05.784Z,5.50
2023-01-03T09:04:37.543Z,4.95
2023-01-03T09:07:06.371Z,4.97
2023-01-03T09:09:35.522Z,5.18
2023-01-03T09:12:04.374Z,5.38
2023-01-03T09:14:33.447Z,4.97
2023-01-03T09:17:02.373Z,5.30
2023-01-03T09:19:33.429Z,4.88
2023-01-03T09:22:03.994Z,6.45
2023-01-03T09:24:32.307Z,6.35
2023-01-03T09:27:02.398Z,5.05
2023-01-03T09:29:32.471Z,4.70
2023-01-03T09:32:03.882Z,4.50
2023-01-03T09:34:33.933Z,4.53
2023-01-03T09:37:04.917Z,5.05
2023-01-03T09:39:34.225Z,4.47
2023-01-03T09:42:20.391Z,5.43
2023-01-03T09:44:51.012Z,4.20
2023-01-03T09:47:24.242Z,4.65
2023-01-03T09:50:26.639Z,4.40
2023-01-03T09:53:03.043Z,5.03
2023-01-03T09:55:55.724Z,4.55
2023-01-03T09:58:40.916Z,4.60
2023-01-03T10:01:42.080Z,4.57
2023-01-03T10:04:32.935Z,4.70
2023-01-03T10:07:13.072Z,5.28
2023-01-03T10:09:51.153Z,4.95
2023-01-03T10:12:30.452Z,5.40
2023-01-03T10:15:16.110Z,5.03
2023-01-03T10:17:56.687Z,4.10
2023-01-03T10:20:43.488Z,4.30
2023-01-03T10:23:13.113Z,4.13
2023-01-03T10:25:46.236Z,4.32
2023-01-03T10:28:23.180Z,8.57
2023-01-03T10:31:18.678Z,7.05
2023-01-03T10:33:48.123Z,4.38
2023-01-03T10:36:18.053Z,5.00
2023-01-03T10:38:53.283Z,5.38
2023-01-03T10:41:33.674Z,4.50
2023-01-03T10:44:04.637Z,4.40
2023-01-03T10:46:34.247Z,4.70
2023-01-03T10:49:27.151Z,4.30
2023-01-03T10:52:01.787Z,4.85
2023-01-03T10:54:48.487Z,5.03
2023-01-03T10:57:46.360Z,5.40
2023-01-03T11:00:28.164Z,4.38
2023-01-03T11:03:04.537Z,4.32
2023-01-03T11:05:34.808Z,4.72
2023-01-03T11:08:07.238Z,3.10
2023-01-03T11:10:42.199Z,3.42
2023-01-03T11:13:26.828Z,3.17
2023-01-03T11:15:57.011Z,2.65
2023-01-03T11:18:27.917Z,3.05
2023-01-03T11:21:08.412Z,2.30
2023-01-03T11:23:59.169Z,2.88
2023-01-03T11:26:41.559Z,2.75
2023-01-03T11:29:45.883Z,2.63
2023-01-03T11:32:27.207Z,2.58
2023-01-03T11:35:24.379Z,3.15
2023-01-03T11:38:05.147Z,2.83
2023-01-03T11:40:45.536Z,2.80
2023-01-03T11:43:32.530Z,4.47
2023-01-03T11:46:21.596Z,2.95
2023-01-03T11:49:16.160Z,2.50
2023-01-03T11:52:01.350Z,2.75
2023-01-03T11:55:02.264Z,3.00
2023-01-03T11:57:39.756Z,2.83
2023-01-03T12:00:20.375Z,2.40
2023-01-03T12:03:14.274Z,2.55
2023-01-03T12:05:49.748Z,2.72
2023-01-03T12:08:40.065Z,2.42
2023-01-03T12:11:18.219Z,2.60
2023-01-03T12:13:53.943Z,2.55
2023-01-03T12:16:31.573Z,2.38
2023-01-03T12:19:12.347Z,2.67
2023-01-03T12:21:46.085Z,2.33
2023-01-03T12:24:19.735Z,2.40
2023-01-03T12:26:56.880Z,2.47
2023-01-03T12:29:30.686Z,2.00
2023-01-03T12:32:05.064Z,2.53
2023-01-03T12:34:47.304Z,2.47
2023-01-03T12:37:18.725Z,1.90
2023-01-03T12:39:55.599Z,2.58
2023-01-03T12:42:34.634Z,2.20
2023-01-03T12:45:22.035Z,2.95
2023-01-03T12:48:00.514Z,2.55
2023-01-03T12:50:38.864Z,2.80
2023-01-03T12:53:20.157Z,1.88
2023-01-03T12:56:08.386Z,2.55
2023-01-03T12:58:48.530Z,2.53
2023-01-03T13:01:22.028Z,1.98
2023-01-03T13:03:55.086Z,2.17
2023-01-03T13:06:30.669Z,2.28
2023-01-03T13:09:04.479Z,2.20
2023-01-03T13:11:38.012Z,2.58
2023-01-03T13:14:22.328Z,1.85
2023-01-03T13:19:54.223Z,2.20
2023-01-03T13:22:36.493Z,2.70
2023-01-03T13:25:30.260Z,1.85
2023-01-03T13:28:00.790Z,1.63
2023-01-03T13:30:33.137Z,2.00
2023-01-03T13:33:19.145Z,1.63
2023-01-03T13:36:03.922Z,1.80
2023-01-03T13:38:36.722Z,1.67
2023-01-03T13:41:30.341Z,1.50
2023-01-03T13:44:10.326Z,1.33
2023-01-03T13:46:43.907Z,2.17
2023-01-03T13:49:22.556Z,1.63
2023-01-03T13:51:54.000Z,1.90
2023-01-03T13:54:44.757Z,2.20
2023-01-03T13:57:36.555Z,1.25
2023-01-03T14:00:23.715Z,1.60
2023-01-03T14:03:20.433Z,1.75
2023-01-03T14:06:39.142Z,1.40
2023-01-03T14:09:49.414Z,1.80
2023-01-03T14:12:46.902Z,1.25
2023-01-03T14:15:26.010Z,0.88
2023-01-03T14:17:58.666Z,1.00
2023-01-03T14:20:31.139Z,1.20
2023-01-03T14:23:23.829Z,1.23
2023-01-03T14:25:56.143Z,1.02
2023-01-03T14:28:28.162Z,0.90
2023-01-03T14:31:03.358Z,1.00
2023-01-03T14:33:38.503Z,1.08
2023-01-03T14:36:09.245Z,1.30
2023-01-03T14:38:39.335Z,1.13
2023-01-03T14:41:28.248Z,1.00
2023-01-03T14:44:05.275Z,1.42
2023-01-03T14:46:35.153Z,0.93
2023-01-03T14:49:07.285Z,1.30
2023-01-03T14:51:40.367Z,1.10
2023-01-03T14:54:10.453Z,1.67
2023-01-03T14:56:41.402Z,1.30
2023-01-03T14:59:12.045Z,1.10
2023-01-03T15:01:41.375Z,1.25
2023-01-03T15:04:16.183Z,1.20
2023-01-03T15:07:03.414Z,1.20
2023-01-03T15:09:37.307Z,1.33
2023-01-03T15:12:08.193Z,1.50
2023-01-03T15:14:40.137Z,0.77
2023-01-03T15:17:17.153Z,0.68
2023-01-03T15:19:52.630Z,0.90
2023-01-03T15:22:24.505Z,0.77
2023-01-03T15:25:05.165Z,1.08
2023-01-03T15:27:44.192Z,0.60
2023-01-03T15:30:27.155Z,1.42
2023-01-03T15:32:59.958Z,0.95
2023-01-03T15:35:39.936Z,1.20
2023-01-03T15:38:16.300Z,1.15
2023-01-03T15:40:47.647Z,0.98
2023-01-03T15:43:20.338Z,3.53
2023-01-03T15:45:53.563Z,2.60
2023-01-03T15:48:24.151Z,2.88
2023-01-03T15:50:55.533Z,3.53
2023-01-03T15:53:29.943Z,5.22
2023-01-03T15:56:02.902Z,4.22
2023-01-03T15:58:34.993Z,2.58
2023-01-03T16:01:06.393Z,2.90
2023-01-03T16:03:36.199Z,2.70
2023-01-03T16:06:06.285Z,2.17
2023-01-03T16:08:37.802Z,1.73
2023-01-03T16:11:13.080Z,1.88
2023-01-03T16:13:48.005Z,3.10
2023-01-03T16:16:22.861Z,2.22
2023-01-03T16:18:51.857Z,2.10
2023-01-03T16:21:21.457Z,2.25
2023-01-03T16:23:53.718Z,2.50
2023-01-03T16:26:22.523Z,3.22
2023-01-03T16:28:52.696Z,3.45
2023-01-03T16:31:26.075Z,3.40
2023-01-03T16:33:54.908Z,3.40
2023-01-03T16:36:37.365Z,3.92
2023-01-03T16:39:17.504Z,3.67
2023-01-03T16:42:07.156Z,5.97
2023-01-03T16:45:32.046Z,6.30
2023-01-03T16:48:06.722Z,6.03
2023-01-03T16:50:39.855Z,4.57
2023-01-03T16:53:12.158Z,4.43
2023-01-03T16:55:42.406Z,2.65
2023-01-03T16:58:19.018Z,3.45
2023-01-03T17:00:49.100Z,3.88
2023-01-03T17:03:18.117Z,4.28
2023-01-03T17:05:48.125Z,3.45
2023-01-03T17:08:21.676Z,3.22
2023-01-03T17:10:55.215Z,3.72
2023-01-03T17:13:30.616Z,3.45
2023-01-03T17:16:03.173Z,2.88
2023-01-03T17:18:37.575Z,2.72
2023-01-03T17:21:14.074Z,3.33
2023-01-03T17:23:44.810Z,3.85
2023-01-03T17:26:17.823Z,3.92
2023-01-03T17:28:47.674Z,4.50
2023-01-03T17:31:19.538Z,4.50
2023-01-03T17:33:48.379Z,4.18
2023-01-03T17:36:26.590Z,5.13
2023-01-03T17:39:01.280Z,4.00
2023-01-03T17:41:30.824Z,4.47
2023-01-03T17:43:59.603Z,4.80
2023-01-03T17:46:52.612Z,5.15
2023-01-03T17:49:25.914Z,3.70
2023-01-03T17:51:57.193Z,3.53
2023-01-03T17:54:29.794Z,4.05
2023-01-03T17:57:00.477Z,4.50
2023-01-03T17:59:30.138Z,4.50
2023-01-03T18:02:01.548Z,4.47
2023-01-03T18:04:57.704Z,5.22
2023-01-03T18:07:23.760Z,5.25
2023-01-03T18:09:54.948Z,4.13
2023-01-03T18:12:26.933Z,4.90
2023-01-03T18:14:55.852Z,6.65
2023-01-03T18:17:31.331Z,6.70
2023-01-03T18:20:01.526Z,7.05
2023-01-03T18:22:30.813Z,6.88
2023-01-03T18:25:00.383Z,7.10
2023-01-03T18:27:29.724Z,6.95
2023-01-03T18:29:58.919Z,8.23
2023-01-03T18:32:31.247Z,7.22
2023-01-03T18:35:02.206Z,6.40
2023-01-03T18:37:35.583Z,6.88
2023-01-03T18:40:05.253Z,5.57
2023-01-03T18:42:51.145Z,7.07
2023-01-03T18:45:19.476Z,6.35
2023-01-03T18:47:51.027Z,7.85
2023-01-03T18:50:21.692Z,7.30
2023-01-03T18:52:51.370Z,6.50
2023-01-03T18:55:23.360Z,6.20
2023-01-03T18:57:54.180Z,6.80
2023-01-03T19:00:25.346Z,6.07
2023-01-03T19:02:57.049Z,6.80
2023-01-03T19:05:25.877Z,5.60
2023-01-03T19:07:54.583Z,6.72
2023-01-03T19:10:27.001Z,5.93
2023-01-03T19:12:59.778Z,6.03
2023-01-03T19:15:30.540Z,6.07
2023-01-03T19:18:01.773Z,5.75
2023-01-03T19:20:30.498Z,5.55
2023-01-03T19:22:59.397Z,4.72
2023-01-03T19:25:31.049Z,4.78
2023-01-03T19:28:02.311Z,5.28
2023-01-03T19:30:37.773Z,5.13
2023-01-03T19:33:14.528Z,6.25
2023-01-03T19:35:44.090Z,6.18
2023-01-03T19:38:13.748Z,5.85
2023-01-03T19:40:45.935Z,5.05
2023-01-03T19:43:22.707Z,4.40
2023-01-03T19:45:51.910Z,4.82
2023-01-03T19:48:23.856Z,5.82
2023-01-03T19:50:55.204Z,5.30
2023-01-03T19:53:24.004Z,4.70
2023-01-03T19:55:54.291Z,4.88
2023-01-03T19:58:26.454Z,4.53
2023-01-03T20:00:57.464Z,4.38
2023-01-03T20:03:32.093Z,4.43
2023-01-03T20:06:01.529Z,5.10
2023-01-03T20:08:30.246Z,4.97
2023-01-03T20:10:59.062Z,4.22
2023-01-03T20:13:29.450Z,4.60
2023-01-03T20:16:02.266Z,5.10
2023-01-03T20:18:37.713Z,4.88
2023-01-03T20:21:16.667Z,4.90
2023-01-03T20:23:53.294Z,4.70
2023-01-03T20:26:27.661Z,5.50
2023-01-03T20:28:58.648Z,5.35
2023-01-03T20:31:29.162Z,5.20
2023-01-03T20:33:59.930Z,4.63
2023-01-03T20:36:38.596Z,4.75
2023-01-03T20:39:17.272Z,5.10
2023-01-03T20:41:46.444Z,5.93
2023-01-03T20:44:16.717Z,4.57
2023-01-03T20:46:46.200Z,3.97
2023-01-03T20:49:19.338Z,4.43
2023-01-03T20:51:49.426Z,4.77
2023-01-03T20:54:18.868Z,4.15
2023-01-03T20:56:48.560Z,4.43
2023-01-03T20:59:19.207Z,4.82
2023-01-03T21:01:49.714Z,4.40
2023-01-03T21:04:20.793Z,4.65
2023-01-03T21:06:52.198Z,4.63
2023-01-03T21:09:19.984Z,4.70
2023-01-03T21:11:48.771Z,5.50
2023-01-03T21:14:17.401Z,4.78
2023-01-03T21:16:47.575Z,5.07
2023-01-03T21:19:18.151Z,4.97
2023-01-03T21:21:51.002Z,5.28
2023-01-03T21:24:21.514Z,4.88
2023-01-03T21:26:50.967Z,4.97
2023-01-03T21:29:20.446Z,4.72
2023-01-03T21:31:49.380Z,5.03
2023-01-03T21:34:20.101Z,4.75
2023-01-03T21:36:53.306Z,4.60
2023-01-03T21:39:22.185Z,4.03
2023-01-03T21:42:19.615Z,4.32
2023-01-03T21:44:48.924Z,5.75
2023-01-03T21:47:17.722Z,4.82
2023-01-03T21:49:47.951Z,4.07
2023-01-03T21:52:18.375Z,4.57
2023-01-03T21:54:48.112Z,4.60
2023-01-03T21:57:23.005Z,5.43
2023-01-03T21:59:52.277Z,5.10
2023-01-03T22:02:39.063Z,5.00
2023-01-03T22:05:09.547Z,5.10
2023-01-03T22:07:40.012Z,5.53
2023-01-03T22:10:20.228Z,5.00
2023-01-03T22:12:51.317Z,5.00
2023-01-03T22:15:20.501Z,5.35
2023-01-03T22:17:49.447Z,4.72
2023-01-03T22:20:19.988Z,5.60
2023-01-03T22:22:50.767Z,5.43
2023-01-03T22:25:22.237Z,5.68
2023-01-03T22:27:51.303Z,5.63
2023-01-03T22:30:22.165Z,5.20
2023-01-03T22:32:50.976Z,5.82
2023-01-03T22:35:22.406Z,6.03
2023-01-03T22:37:52.712Z,5.68
2023-01-03T22:40:22.789Z,5.32
2023-01-03T22:42:51.437Z,6.00
2023-01-03T22:45:20.374Z,5.78
2023-01-03T22:47:49.311Z,5.53
2023-01-03T22:50:18.139Z,5.63
2023-01-03T22:52:46.929Z,6.05
2023-01-03T22:55:18.921Z,6.60
2023-01-03T22:57:47.680Z,5.85
2023-01-03T23:00:17.089Z,6.13
2023-01-03T23:02:46.980Z,6.80
2023-01-03T23:05:16.099Z,6.25
2023-01-03T23:07:45.710Z,6.90
2023-01-03T23:10:14.751Z,5.95
2023-01-03T23:12:59.173Z,6.30
2023-01-03T23:15:30.406Z,7.22
2023-01-03T23:18:04.125Z,6.97
2023-01-03T23:20:34.985Z,6.30
2023-01-03T23:23:04.959Z,8.05
2023-01-03T23:25:36.932Z,6.45
2023-01-03T23:28:07.396Z,6.53
2023-01-03T23:30:36.863Z,6.72
2023-01-03T23:33:06.075Z,6.60
2023-01-03T23:35:34.996Z,6.85
2023-01-03T23:38:03.686Z,7.20
2023-01-03T23:40:32.182Z,6.95
2023-01-03T23:43:01.365Z,6.20
2023-01-03T23:45:31.528Z,7.15
2023-01-03T23:47:59.855Z,6.43
2023-01-03T23:50:28.387Z,6.50
2023-01-03T23:52:57.275Z,7.57
2023-01-03T23:55:25.716Z,7.45
2023-01-03T23:57:54.321Z,8.45
